createdAt,value
2022-08-14T00:01:03.984Z,11.63
2022-08-14T00:03:40.436Z,11.17
2022-08-14T00:06:25.813Z,11.47
2022-08-14T00:08:54.254Z,14.60
2022-08-14T00:11:25.860Z,13.07
2022-08-14T00:13:55.307Z,11.97
2022-08-14T00:16:41.364Z,9.70
2022-08-14T00:19:21.351Z,10.33
2022-08-14T00:21:50.024Z,15.77
2022-08-14T00:24:23.127Z,11.07
2022-08-14T00:26:56.639Z,9.83
2022-08-14T00:29:25.633Z,10.20
2022-08-14T00:31:53.883Z,9.30
2022-08-14T00:34:36.777Z,13.57
2022-08-14T00:37:10.317Z,13.20
2022-08-14T00:39:37.250Z,14.00
2022-08-14T00:42:04.800Z,16.87
2022-08-14T00:44:32.429Z,11.77
2022-08-14T00:47:05.854Z,11.73
2022-08-14T00:49:38.232Z,11.27
2022-08-14T00:52:14.036Z,11.80
2022-08-14T00:54:44.902Z,13.27
2022-08-14T00:57:12.204Z,10.40
2022-08-14T00:59:39.515Z,14.07
2022-08-14T01:02:06.719Z,12.10
2022-08-14T01:04:38.019Z,16.47
2022-08-14T01:07:22.659Z,11.63
2022-08-14T01:09:54.172Z,10.20
2022-08-14T01:12:26.309Z,10.37
2022-08-14T01:14:55.166Z,11.43
2022-08-14T01:17:49.750Z,10.97
2022-08-14T01:20:35.908Z,11.30
2022-08-14T01:23:16.748Z,8.97
2022-08-14T01:25:51.398Z,12.13
2022-08-14T01:28:47.314Z,9.00
2022-08-14T01:31:12.257Z,15.10
2022-08-14T01:34:00.496Z,11.10
2022-08-14T01:36:38.060Z,13.40
2022-08-14T01:39:12.574Z,12.30
2022-08-14T01:41:42.137Z,13.57
2022-08-14T01:44:31.256Z,15.57
2022-08-14T01:47:05.921Z,11.73
2022-08-14T01:49:35.389Z,14.03
2022-08-14T01:52:03.680Z,12.30
2022-08-14T01:54:38.166Z,14.77
2022-08-14T01:57:06.410Z,13.00
2022-08-14T01:59:38.045Z,13.83
2022-08-14T02:02:19.621Z,17.40
2022-08-14T02:04:56.837Z,17.50
2022-08-14T02:07:34.845Z,17.17
2022-08-14T02:10:15.965Z,20.50
2022-08-14T02:12:54.122Z,11.93
2022-08-14T02:15:23.932Z,10.73
2022-08-14T02:17:50.522Z,13.07
2022-08-14T02:20:23.391Z,11.00
2022-08-14T02:22:54.506Z,10.50
2022-08-14T02:25:21.960Z,14.87
2022-08-14T02:28:23.038Z,15.13
2022-08-14T02:30:38.180Z,11.67
2022-08-14T02:33:05.696Z,10.50
2022-08-14T02:35:32.849Z,12.27
2022-08-14T02:38:00.977Z,11.27
2022-08-14T02:40:33.772Z,13.07
2022-08-14T02:43:02.671Z,10.90
2022-08-14T02:45:38.348Z,14.70
2022-08-14T02:49:02.079Z,11.23
2022-08-14T02:51:00.936Z,12.93
2022-08-14T02:53:29.412Z,11.40
2022-08-14T02:56:02.456Z,10.83
2022-08-14T02:58:30.819Z,11.10
2022-08-14T03:00:58.756Z,13.10
2022-08-14T03:03:25.787Z,13.10
2022-08-14T03:05:54.342Z,8.27
2022-08-14T03:08:22.480Z,8.50
2022-08-14T03:10:50.160Z,9.20
2022-08-14T03:13:20.768Z,8.07
2022-08-14T03:15:55.572Z,15.43
2022-08-14T03:18:31.423Z,10.80
2022-08-14T03:21:06.141Z,12.37
2022-08-14T03:23:37.914Z,15.00
2022-08-14T03:26:13.142Z,14.50
2022-08-14T03:28:48.378Z,12.00
2022-08-14T03:31:15.591Z,9.70
2022-08-14T03:33:43.227Z,14.63
2022-08-14T03:37:38.315Z,10.40
2022-08-14T03:39:21.689Z,12.53
2022-08-14T03:41:55.870Z,12.30
2022-08-14T03:45:18.800Z,11.77
2022-08-14T03:47:11.828Z,9.63
2022-08-14T03:49:41.987Z,11.60
2022-08-14T03:52:37.763Z,11.23
2022-08-14T03:54:57.397Z,8.37
2022-08-14T03:57:24.412Z,9.93
2022-08-14T03:59:51.028Z,8.27
2022-08-14T04:02:32.674Z,10.77
2022-08-14T04:05:11.710Z,16.87
2022-08-14T04:07:39.123Z,9.07
2022-08-14T04:10:17.463Z,10.40
2022-08-14T04:12:52.869Z,10.53
2022-08-14T04:15:21.214Z,10.40
2022-08-14T04:17:50.210Z,10.57
2022-08-14T04:20:17.129Z,12.30
2022-08-14T04:22:55.511Z,14.13
2022-08-14T04:25:22.579Z,12.13
2022-08-14T04:28:02.361Z,40.30
2022-08-14T04:30:32.668Z,60.93
2022-08-14T04:33:05.388Z,38.43
2022-08-14T04:35:56.653Z,28.33
2022-08-14T04:38:41.439Z,22.03
2022-08-14T04:41:30.354Z,25.90
2022-08-14T04:43:57.592Z,20.83
2022-08-14T04:46:55.687Z,20.90
2022-08-14T04:49:11.593Z,19.80
2022-08-14T04:51:46.866Z,25.40
2022-08-14T04:54:22.708Z,19.47
2022-08-14T04:56:51.000Z,13.30
2022-08-14T04:59:21.523Z,11.33
2022-08-14T05:01:53.914Z,10.80
2022-08-14T05:04:24.691Z,11.70
2022-08-14T05:06:54.459Z,18.17
2022-08-14T05:09:23.558Z,16.73
2022-08-14T05:11:51.580Z,12.77
2022-08-14T05:14:46.881Z,18.43
2022-08-14T05:17:05.287Z,20.20
2022-08-14T05:19:33.592Z,15.87
2022-08-14T05:22:17.638Z,11.17
2022-08-14T05:24:50.538Z,10.77
2022-08-14T05:27:19.874Z,11.23
2022-08-14T05:29:49.847Z,15.20
2022-08-14T05:32:16.556Z,10.40
2022-08-14T05:34:45.876Z,11.70
2022-08-14T05:37:13.047Z,10.63
2022-08-14T05:39:42.163Z,17.45
2022-08-14T05:42:21.369Z,10.60
2022-08-14T05:44:49.042Z,9.23
2022-08-14T05:47:16.028Z,8.50
2022-08-14T05:49:43.775Z,9.80
2022-08-14T05:52:10.665Z,12.83
2022-08-14T05:54:44.428Z,8.20
2022-08-14T05:57:10.854Z,9.30
2022-08-14T05:59:39.917Z,10.93
2022-08-14T06:02:11.054Z,13.63
2022-08-14T06:04:38.658Z,8.80
2022-08-14T06:07:05.696Z,11.75
2022-08-14T06:09:36.105Z,10.90
2022-08-14T06:12:11.797Z,8.95
2022-08-14T06:14:38.742Z,8.73
2022-08-14T06:17:05.593Z,9.98
2022-08-14T06:19:32.087Z,8.43
2022-08-14T06:21:59.126Z,12.13
2022-08-14T06:24:26.926Z,8.70
2022-08-14T06:26:56.706Z,14.00
2022-08-14T06:29:32.416Z,10.70
2022-08-14T06:32:48.729Z,12.48
2022-08-14T06:35:10.862Z,11.65
2022-08-14T06:37:41.406Z,8.20
2022-08-14T06:40:16.624Z,10.30
2022-08-14T06:42:53.038Z,8.07
2022-08-14T06:45:21.212Z,8.98
2022-08-14T06:47:53.692Z,8.07
2022-08-14T06:50:28.098Z,8.77
2022-08-14T06:52:55.741Z,8.65
2022-08-14T06:55:25.951Z,8.00
2022-08-14T06:57:55.000Z,7.82
2022-08-14T07:00:26.960Z,8.15
2022-08-14T07:03:13.055Z,10.60
2022-08-14T07:05:55.922Z,8.85
2022-08-14T07:08:31.226Z,7.07
2022-08-14T07:11:01.398Z,6.50
2022-08-14T07:13:30.379Z,9.10
2022-08-14T07:15:58.702Z,10.52
2022-08-14T07:18:28.344Z,7.93
2022-08-14T07:20:55.391Z,6.72
2022-08-14T07:23:24.132Z,9.15
2022-08-14T07:25:52.269Z,6.68
2022-08-14T07:28:20.531Z,7.35
2022-08-14T07:30:51.501Z,7.95
2022-08-14T07:33:20.802Z,8.82
2022-08-14T07:35:58.447Z,6.97
2022-08-14T07:38:33.643Z,8.30
2022-08-14T07:41:02.460Z,7.18
2022-08-14T07:43:29.746Z,8.77
2022-08-14T07:45:56.505Z,9.02
2022-08-14T07:48:25.409Z,7.70
2022-08-14T07:50:52.945Z,8.07
2022-08-14T07:53:22.304Z,9.23
2022-08-14T07:56:00.276Z,8.85
2022-08-14T07:58:39.033Z,6.95
2022-08-14T08:01:18.991Z,8.95
2022-08-14T08:03:52.029Z,7.38
2022-08-14T08:06:26.462Z,8.05
2022-08-14T08:09:01.192Z,7.80
2022-08-14T08:11:34.722Z,8.93
2022-08-14T08:14:17.470Z,7.07
2022-08-14T08:16:47.397Z,7.72
2022-08-14T08:19:19.118Z,8.85
2022-08-14T08:21:46.937Z,7.07
2022-08-14T08:24:18.570Z,9.32
2022-08-14T08:26:47.938Z,8.43
2022-08-14T08:29:25.046Z,7.75
2022-08-14T08:31:56.731Z,8.13
2022-08-14T08:34:29.219Z,9.38
2022-08-14T08:36:58.294Z,9.00
2022-08-14T08:39:24.793Z,10.00
2022-08-14T08:41:57.334Z,9.13
2022-08-14T08:44:32.972Z,12.48
2022-08-14T08:47:07.881Z,9.27
2022-08-14T08:49:43.091Z,9.10
2022-08-14T08:52:25.012Z,7.32
2022-08-14T08:54:55.280Z,8.35
2022-08-14T08:57:22.401Z,14.45
2022-08-14T08:59:54.823Z,9.00
2022-08-14T09:02:22.618Z,8.35
2022-08-14T09:05:02.031Z,9.27
2022-08-14T09:07:28.509Z,11.98
2022-08-14T09:09:59.980Z,8.57
2022-08-14T09:12:31.638Z,7.78
2022-08-14T09:15:01.701Z,9.15
2022-08-14T09:17:28.398Z,8.15
2022-08-14T09:19:55.389Z,11.90
2022-08-14T09:22:35.347Z,9.32
2022-08-14T09:25:07.290Z,10.32
2022-08-14T09:27:35.093Z,9.48
2022-08-14T09:30:01.697Z,9.18
2022-08-14T09:32:59.322Z,9.50
2022-08-14T09:35:56.756Z,8.77
2022-08-14T09:39:23.001Z,11.27
2022-08-14T09:42:21.434Z,9.43
2022-08-14T09:45:12.585Z,9.07
2022-08-14T09:47:49.030Z,11.02
2022-08-14T09:50:26.852Z,9.30
2022-08-14T09:53:04.537Z,8.32
2022-08-14T09:55:36.797Z,8.18
2022-08-14T09:58:19.915Z,8.10
2022-08-14T10:00:53.994Z,11.63
2022-08-14T10:03:33.843Z,9.88
2022-08-14T10:06:13.719Z,10.23
2022-08-14T10:08:51.002Z,8.70
2022-08-14T10:11:23.568Z,9.98
2022-08-14T10:13:56.885Z,9.35
2022-08-14T10:16:33.188Z,12.27
2022-08-14T10:19:12.827Z,12.75
2022-08-14T10:23:11.083Z,9.40
2022-08-14T10:24:47.050Z,8.82
2022-08-14T10:27:25.126Z,10.68
2022-08-14T10:29:59.814Z,11.40
2022-08-14T10:32:29.279Z,9.57
2022-08-14T10:35:13.585Z,9.13
2022-08-14T10:37:51.892Z,8.07
2022-08-14T10:40:38.803Z,8.88
2022-08-14T10:43:23.866Z,9.75
2022-08-14T10:46:03.742Z,8.63
2022-08-14T10:48:55.412Z,10.15
2022-08-14T10:51:26.725Z,8.80
2022-08-14T10:53:58.451Z,7.93
2022-08-14T10:56:35.112Z,10.10
2022-08-14T10:59:08.479Z,9.13
2022-08-14T11:01:40.945Z,9.65
2022-08-14T11:04:20.172Z,10.15
2022-08-14T11:06:56.190Z,12.70
2022-08-14T11:09:22.867Z,9.27
2022-08-14T11:11:56.337Z,11.02
2022-08-14T11:14:42.549Z,7.78
2022-08-14T11:17:09.399Z,8.45
2022-08-14T11:19:37.005Z,10.98
2022-08-14T11:22:06.432Z,8.68
2022-08-14T11:24:55.470Z,12.30
2022-08-14T11:27:20.374Z,9.25
2022-08-14T11:29:52.499Z,11.82
2022-08-14T11:32:23.299Z,9.95
2022-08-14T11:34:53.490Z,7.20
2022-08-14T11:37:31.641Z,9.73
2022-08-14T11:40:15.728Z,9.43
2022-08-14T11:42:59.572Z,11.65
2022-08-14T11:45:33.104Z,8.85
2022-08-14T11:49:04.126Z,8.70
2022-08-14T11:51:23.668Z,7.72
2022-08-14T11:53:53.592Z,8.85
2022-08-14T11:56:25.840Z,6.80
2022-08-14T11:58:57.043Z,7.03
2022-08-14T12:01:31.299Z,11.27
2022-08-14T12:04:21.681Z,12.23
2022-08-14T12:07:00.780Z,11.02
2022-08-14T12:09:30.104Z,8.75
2022-08-14T12:11:56.674Z,9.63
2022-08-14T12:14:30.798Z,13.25
2022-08-14T12:17:12.084Z,10.07
2022-08-14T12:19:44.406Z,10.05
2022-08-14T12:22:12.005Z,9.85
2022-08-14T12:24:46.986Z,8.48
2022-08-14T12:27:16.863Z,7.05
2022-08-14T12:29:53.599Z,9.98
2022-08-14T12:32:20.040Z,7.38
2022-08-14T12:34:53.237Z,9.98
2022-08-14T12:37:29.181Z,12.07
2022-08-14T12:39:55.895Z,12.77
2022-08-14T12:42:36.460Z,9.43
2022-08-14T12:45:08.098Z,9.45
2022-08-14T12:47:34.845Z,11.57
2022-08-14T12:50:01.300Z,9.68
2022-08-14T12:52:43.081Z,8.00
2022-08-14T12:55:20.967Z,8.48
2022-08-14T12:57:49.340Z,12.35
2022-08-14T13:00:24.000Z,9.60
2022-08-14T13:02:55.075Z,10.15
2022-08-14T13:05:29.961Z,11.45
2022-08-14T13:07:59.351Z,11.23
2022-08-14T13:10:46.874Z,9.65
2022-08-14T13:13:16.209Z,10.68
2022-08-14T13:15:45.443Z,10.63
2022-08-14T13:18:14.506Z,11.18
2022-08-14T13:20:51.823Z,8.80
2022-08-14T13:23:31.519Z,9.50
2022-08-14T13:25:59.399Z,10.88
2022-08-14T13:28:33.148Z,12.75
2022-08-14T13:31:11.186Z,9.57
2022-08-14T13:33:40.822Z,10.55
2022-08-14T13:36:08.868Z,11.88
2022-08-14T13:38:35.694Z,12.27
2022-08-14T13:41:02.916Z,12.25
2022-08-14T13:43:31.675Z,9.20
2022-08-14T13:46:03.944Z,9.70
2022-08-14T13:48:33.486Z,8.00
2022-08-14T13:51:10.637Z,8.73
2022-08-14T13:53:49.494Z,8.35
2022-08-14T13:56:37.243Z,8.43
2022-08-14T13:59:03.974Z,8.45
2022-08-14T14:01:43.755Z,9.82
2022-08-14T14:04:19.576Z,10.98
2022-08-14T14:06:49.012Z,7.93
2022-08-14T14:09:32.519Z,8.93
2022-08-14T14:12:06.294Z,15.30
2022-08-14T14:14:51.524Z,11.35
2022-08-14T14:17:24.396Z,7.90
2022-08-14T14:19:52.205Z,10.43
2022-08-14T14:22:35.506Z,8.65
2022-08-14T14:25:05.546Z,7.50
2022-08-14T14:27:41.548Z,9.60
2022-08-14T14:30:46.504Z,13.82
2022-08-14T14:33:05.041Z,10.57
2022-08-14T14:35:34.768Z,8.48
2022-08-14T14:38:07.096Z,8.15
2022-08-14T14:40:52.591Z,7.55
2022-08-14T14:43:22.186Z,8.15
2022-08-14T14:45:50.470Z,8.00
2022-08-14T14:48:19.567Z,9.27
2022-08-14T14:50:46.465Z,8.55
2022-08-14T14:53:13.689Z,7.40
2022-08-14T14:55:43.068Z,6.97
2022-08-14T14:58:30.560Z,11.60
2022-08-14T15:01:03.576Z,8.88
2022-08-14T15:03:36.035Z,8.15
2022-08-14T15:06:03.756Z,6.57
2022-08-14T15:08:49.756Z,9.00
2022-08-14T15:11:17.717Z,8.82
2022-08-14T15:13:53.270Z,6.25
2022-08-14T15:16:20.538Z,7.10
2022-08-14T15:18:49.046Z,6.32
2022-08-14T15:21:15.781Z,7.30
2022-08-14T15:23:44.509Z,11.20
2022-08-14T15:26:24.388Z,10.68
2022-08-14T15:29:05.202Z,6.65
2022-08-14T15:31:36.559Z,6.20
2022-08-14T15:34:46.050Z,5.80
2022-08-14T15:37:12.643Z,5.85
2022-08-14T15:39:41.405Z,13.65
2022-08-14T15:42:14.823Z,13.52
2022-08-14T15:44:57.434Z,9.80
2022-08-14T15:47:29.076Z,7.40
2022-08-14T15:49:59.642Z,14.90
2022-08-14T15:52:32.395Z,9.60
2022-08-14T15:55:08.419Z,11.25
2022-08-14T15:57:36.022Z,11.10
2022-08-14T16:00:40.853Z,10.27
2022-08-14T16:03:12.641Z,6.60
2022-08-14T16:05:42.068Z,11.25
2022-08-14T16:08:26.684Z,8.90
2022-08-14T16:10:56.101Z,10.20
2022-08-14T16:13:41.522Z,11.68
2022-08-14T16:16:34.989Z,10.20
2022-08-14T16:19:12.171Z,9.10
2022-08-14T16:21:40.716Z,8.77
2022-08-14T16:24:28.472Z,10.43
2022-08-14T16:27:00.480Z,8.32
2022-08-14T16:29:29.132Z,9.43
2022-08-14T16:31:58.041Z,7.22
2022-08-14T16:34:44.997Z,7.40
2022-08-14T16:37:12.595Z,9.80
2022-08-14T16:39:41.706Z,8.68
2022-08-14T16:42:38.126Z,10.25
2022-08-14T16:44:58.684Z,16.20
2022-08-14T16:47:25.548Z,7.82
2022-08-14T16:50:08.478Z,8.57
2022-08-14T16:52:44.276Z,9.93
2022-08-14T16:55:22.422Z,14.25
2022-08-14T16:57:58.934Z,9.35
2022-08-14T17:00:43.212Z,8.52
2022-08-14T17:03:11.898Z,16.08
2022-08-14T17:05:43.838Z,11.00
2022-08-14T17:08:32.487Z,12.55
2022-08-14T17:11:10.772Z,8.20
2022-08-14T17:13:57.832Z,7.97
2022-08-14T17:16:30.959Z,9.35
2022-08-14T17:19:00.655Z,9.82
2022-08-14T17:21:31.605Z,9.27
2022-08-14T17:24:01.136Z,11.57
2022-08-14T17:26:55.589Z,9.65
2022-08-14T17:29:29.495Z,14.20
2022-08-14T17:32:28.288Z,10.02
2022-08-14T17:35:01.947Z,11.70
2022-08-14T17:37:34.257Z,14.13
2022-08-14T17:40:15.939Z,10.90
2022-08-14T17:42:53.394Z,10.88
2022-08-14T17:45:26.945Z,9.00
2022-08-14T17:47:59.016Z,9.15
2022-08-14T17:51:01.882Z,12.23
2022-08-14T17:53:30.605Z,9.80
2022-08-14T17:56:03.087Z,10.30
2022-08-14T17:58:30.953Z,10.57
2022-08-14T18:01:12.841Z,9.60
2022-08-14T18:03:50.405Z,9.75
2022-08-14T18:06:38.211Z,17.20
2022-08-14T18:09:24.622Z,10.32
2022-08-14T18:11:57.906Z,9.25
2022-08-14T18:14:33.025Z,9.25
2022-08-14T18:17:13.574Z,9.57
2022-08-14T18:19:44.151Z,14.35
2022-08-14T18:22:24.055Z,11.15
2022-08-14T18:24:58.452Z,9.77
2022-08-14T18:27:35.878Z,11.88
2022-08-14T18:30:31.664Z,12.75
2022-08-14T18:32:55.375Z,9.10
2022-08-14T18:35:45.637Z,8.75
2022-08-14T18:38:55.228Z,12.95
2022-08-14T18:41:37.119Z,8.68
2022-08-14T18:44:04.953Z,13.43
2022-08-14T18:47:08.716Z,10.45
2022-08-14T18:49:54.390Z,10.40
2022-08-14T18:52:22.358Z,13.43
2022-08-14T18:54:51.702Z,8.35
2022-08-14T18:57:26.637Z,11.05
2022-08-14T18:59:53.669Z,12.73
2022-08-14T19:02:30.423Z,14.00
2022-08-14T19:04:58.826Z,12.55
2022-08-14T19:07:25.679Z,14.25
2022-08-14T19:10:03.447Z,12.23
2022-08-14T19:13:01.182Z,13.88
2022-08-14T19:15:31.370Z,13.10
2022-08-14T19:18:14.662Z,11.18
2022-08-14T19:20:48.084Z,11.50
2022-08-14T19:23:18.659Z,15.00
2022-08-14T19:25:55.099Z,13.13
2022-08-14T19:28:31.470Z,17.48
2022-08-14T19:31:42.171Z,11.45
2022-08-14T19:34:09.366Z,10.10
2022-08-14T19:37:05.900Z,10.90
2022-08-14T19:39:54.010Z,10.85
2022-08-14T19:42:28.203Z,10.60
2022-08-14T19:44:57.503Z,9.77
2022-08-14T19:47:41.103Z,13.07
2022-08-14T19:50:38.283Z,10.65
2022-08-14T19:53:11.357Z,10.38
2022-08-14T19:55:45.650Z,13.23
2022-08-14T19:58:12.982Z,10.63
2022-08-14T20:00:52.783Z,10.52
2022-08-14T20:03:24.032Z,10.18
2022-08-14T20:06:01.350Z,12.60
2022-08-14T20:11:01.207Z,10.07
2022-08-14T20:11:58.460Z,11.90
2022-08-14T20:14:29.768Z,13.90
2022-08-14T20:17:01.938Z,11.60
2022-08-14T20:19:37.957Z,14.60
2022-08-14T20:22:36.828Z,10.25
2022-08-14T20:25:10.706Z,12.07
2022-08-14T20:27:40.831Z,13.13
2022-08-14T20:30:37.588Z,10.57
2022-08-14T20:33:07.732Z,12.25
2022-08-14T20:35:48.965Z,15.90
2022-08-14T20:38:31.457Z,12.82
2022-08-14T20:41:05.715Z,12.95
2022-08-14T20:43:53.343Z,14.77
2022-08-14T20:46:29.474Z,16.25
2022-08-14T20:49:02.558Z,11.82
2022-08-14T20:51:43.514Z,12.32
2022-08-14T20:54:34.544Z,12.40
2022-08-14T20:57:08.864Z,14.70
2022-08-14T20:59:40.277Z,15.60
2022-08-14T21:02:30.409Z,11.50
2022-08-14T21:05:17.253Z,16.80
2022-08-14T21:07:50.853Z,14.52
2022-08-14T21:10:33.118Z,11.63
2022-08-14T21:14:18.771Z,12.40
2022-08-14T21:15:57.651Z,11.35
2022-08-14T21:18:33.030Z,11.80
2022-08-14T21:21:06.768Z,12.60
2022-08-14T21:23:54.048Z,13.48
2022-08-14T21:26:50.767Z,13.50
2022-08-14T21:29:11.248Z,18.60
2022-08-14T21:31:38.995Z,10.73
2022-08-14T21:34:30.947Z,13.20
2022-08-14T21:36:52.906Z,18.52
2022-08-14T21:39:19.554Z,14.38
2022-08-14T21:41:50.332Z,14.80
2022-08-14T21:44:43.313Z,11.25
2022-08-14T21:47:12.014Z,11.88
2022-08-14T21:49:40.128Z,13.63
2022-08-14T21:52:50.429Z,12.60
2022-08-14T21:55:00.723Z,14.10
2022-08-14T21:57:55.904Z,11.75
2022-08-14T22:00:35.326Z,13.48
2022-08-14T22:03:06.002Z,11.23
2022-08-14T22:05:32.680Z,13.43
2022-08-14T22:07:59.301Z,11.45
2022-08-14T22:10:29.035Z,9.95
2022-08-14T22:13:00.386Z,10.57
2022-08-14T22:15:27.919Z,11.57
2022-08-14T22:17:55.045Z,12.60
2022-08-14T22:20:24.405Z,12.20
2022-08-14T22:22:56.176Z,10.48
2022-08-14T22:25:33.962Z,13.70
2022-08-14T22:28:05.722Z,10.68
2022-08-14T22:30:33.424Z,12.68
2022-08-14T22:33:00.507Z,9.48
2022-08-14T22:35:28.241Z,10.88
2022-08-14T22:38:01.595Z,10.25
2022-08-14T22:41:05.519Z,13.25
2022-08-14T22:43:31.306Z,12.10
2022-08-14T22:45:58.243Z,10.10
2022-08-14T22:48:29.346Z,9.60
2022-08-14T22:50:56.004Z,10.77
2022-08-14T22:53:23.667Z,10.20
2022-08-14T22:55:52.272Z,12.57
2022-08-14T22:58:19.452Z,10.05
2022-08-14T23:00:57.314Z,14.77
2022-08-14T23:03:24.392Z,9.00
2022-08-14T23:05:52.882Z,12.48
2022-08-14T23:08:59.070Z,10.15
2022-08-14T23:11:10.082Z,10.00
2022-08-14T23:13:40.816Z,9.07
2022-08-14T23:16:10.609Z,9.23
2022-08-14T23:18:46.977Z,13.05
2022-08-14T23:21:24.427Z,8.73
2022-08-14T23:23:54.962Z,9.18
2022-08-14T23:26:48.507Z,9.02
2022-08-14T23:29:09.271Z,11.10
2022-08-14T23:31:38.372Z,11.25
2022-08-14T23:34:07.706Z,8.00
2022-08-14T23:36:52.628Z,9.35
2022-08-14T23:39:19.630Z,11.02
2022-08-14T23:41:53.047Z,10.45
2022-08-14T23:44:22.386Z,12.15
2022-08-14T23:46:49.530Z,8.68
2022-08-14T23:49:21.278Z,11.95
2022-08-14T23:52:49.660Z,11.35
2022-08-14T23:54:49.141Z,10.65
2022-08-14T23:57:19.158Z,9.68
2022-08-14T23:59:54.228Z,9.18
